createdAt,value
2023-05-22T00:01:28.810Z,18.80
2023-05-22T00:06:31.286Z,18.80
2023-05-22T00:11:34.767Z,18.70
2023-05-22T00:16:36.579Z,18.70
2023-05-22T00:21:38.944Z,18.60
2023-05-22T00:26:40.820Z,18.50
2023-05-22T00:31:42.544Z,18.50
2023-05-22T00:36:44.285Z,18.40
2023-05-22T00:41:46.409Z,18.30
2023-05-22T00:46:48.188Z,18.20
2023-05-22T00:51:50.163Z,18.20
2023-05-22T00:56:52.045Z,18.10
2023-05-22T01:01:55.812Z,18.10
2023-05-22T01:06:57.635Z,18.10
2023-05-22T01:12:09.857Z,18.00
2023-05-22T01:17:34.720Z,18.00
2023-05-22T01:22:58.560Z,17.90
2023-05-22T01:28:24.526Z,17.80
2023-05-22T01:33:28.783Z,17.80
2023-05-22T01:38:31.299Z,17.70
2023-05-22T01:43:33.125Z,17.70
2023-05-22T01:48:36.155Z,17.60
2023-05-22T01:54:03.259Z,17.60
2023-05-22T01:59:14.738Z,17.60
2023-05-22T02:04:22.611Z,17.50
2023-05-22T02:09:28.056Z,17.50
2023-05-22T02:14:30.231Z,17.40
2023-05-22T02:19:34.928Z,17.30
2023-05-22T02:24:37.032Z,17.30
2023-05-22T02:29:39.085Z,17.20
2023-05-22T02:34:40.812Z,17.20
2023-05-22T02:39:42.562Z,17.10
2023-05-22T02:44:44.269Z,17.00
2023-05-22T02:49:46.540Z,17.00
2023-05-22T02:54:48.270Z,16.90
2023-05-22T02:59:50.006Z,16.90
2023-05-22T03:04:51.909Z,16.90
2023-05-22T03:09:53.623Z,16.80
2023-05-22T03:14:55.478Z,16.80
2023-05-22T03:19:57.194Z,16.80
2023-05-22T03:24:59.191Z,16.70
2023-05-22T03:30:01.278Z,16.70
2023-05-22T03:35:03.870Z,16.70
2023-05-22T03:40:06.393Z,16.70
2023-05-22T03:45:08.556Z,16.70
2023-05-22T03:50:11.007Z,16.70
2023-05-22T03:55:12.824Z,16.70
2023-05-22T04:00:16.949Z,16.80
2023-05-22T04:05:18.722Z,16.80
2023-05-22T04:10:22.688Z,16.80
2023-05-22T04:15:24.471Z,16.80
2023-05-22T04:20:26.496Z,16.90
2023-05-22T04:25:28.270Z,16.90
2023-05-22T04:30:40.352Z,17.00
2023-05-22T04:35:42.384Z,17.10
2023-05-22T04:40:44.653Z,17.20
2023-05-22T04:45:46.389Z,17.10
2023-05-22T04:50:49.457Z,17.20
2023-05-22T04:55:51.215Z,17.30
2023-05-22T05:00:54.056Z,17.30
2023-05-22T05:05:56.760Z,17.40
2023-05-22T05:10:58.508Z,17.40
2023-05-22T05:16:00.580Z,17.60
2023-05-22T05:21:02.429Z,17.80
2023-05-22T05:26:04.255Z,18.00
2023-05-22T05:31:07.804Z,18.00
2023-05-22T05:36:10.081Z,18.10
2023-05-22T05:41:13.220Z,18.20
2023-05-22T05:46:15.089Z,18.30
2023-05-22T05:51:16.818Z,18.40
2023-05-22T05:56:18.589Z,18.60
2023-05-22T06:01:20.522Z,18.80
2023-05-22T06:06:25.962Z,18.80
2023-05-22T06:11:27.904Z,18.80
2023-05-22T06:16:30.056Z,19.00
2023-05-22T06:21:31.924Z,19.10
2023-05-22T06:26:33.722Z,19.20
2023-05-22T06:31:38.414Z,19.40
2023-05-22T06:36:40.656Z,19.60
2023-05-22T06:41:42.373Z,19.80
2023-05-22T06:46:44.245Z,19.90
2023-05-22T06:51:46.552Z,20.10
2023-05-22T06:56:48.367Z,20.30
2023-05-22T07:01:50.213Z,20.50
2023-05-22T07:06:52.407Z,20.80
2023-05-22T07:11:54.202Z,20.80
2023-05-22T07:16:56.362Z,20.80
2023-05-22T07:22:00.087Z,21.00
2023-05-22T07:27:02.088Z,20.80
2023-05-22T07:32:04.328Z,21.10
2023-05-22T07:37:12.954Z,21.00
2023-05-22T07:42:15.002Z,21.10
2023-05-22T07:47:16.997Z,21.10
2023-05-22T07:52:18.792Z,21.20
2023-05-22T07:57:20.533Z,21.30
2023-05-22T08:02:22.558Z,21.40
2023-05-22T08:07:24.427Z,21.70
2023-05-22T08:12:26.251Z,21.90
2023-05-22T08:17:28.107Z,22.10
2023-05-22T08:22:31.058Z,22.20
2023-05-22T08:27:32.862Z,22.40
2023-05-22T08:32:34.694Z,22.30
2023-05-22T08:37:37.193Z,22.50
2023-05-22T08:42:39.206Z,22.60
2023-05-22T08:47:44.256Z,22.80
2023-05-22T08:52:57.180Z,23.20
2023-05-22T08:58:00.628Z,23.50
2023-05-22T09:03:02.861Z,23.50
2023-05-22T09:08:15.975Z,23.60
2023-05-22T09:13:29.118Z,23.80
2023-05-22T09:18:31.819Z,24.10
2023-05-22T09:23:33.823Z,24.50
2023-05-22T09:28:36.903Z,24.60
2023-05-22T09:33:38.800Z,24.70
2023-05-22T09:38:41.211Z,24.70
2023-05-22T09:43:50.990Z,24.70
2023-05-22T09:48:53.553Z,24.90
2023-05-22T09:54:03.918Z,24.90
2023-05-22T09:59:09.251Z,24.90
2023-05-22T10:04:16.304Z,25.00
2023-05-22T10:09:21.396Z,24.70
2023-05-22T10:14:24.530Z,25.00
2023-05-22T10:19:28.932Z,25.10
2023-05-22T10:24:31.730Z,25.30
2023-05-22T10:29:55.438Z,25.50
2023-05-22T10:34:57.130Z,25.60
2023-05-22T10:40:05.455Z,25.50
2023-05-22T10:45:08.105Z,25.70
2023-05-22T10:50:13.054Z,25.60
2023-05-22T10:55:14.836Z,25.60
2023-05-22T11:00:18.726Z,25.70
2023-05-22T11:05:25.457Z,25.70
2023-05-22T11:10:47.788Z,26.00
2023-05-22T11:15:49.897Z,26.10
2023-05-22T11:20:54.782Z,26.20
2023-05-22T11:25:56.521Z,26.30
2023-05-22T11:31:00.202Z,26.50
2023-05-22T11:36:03.402Z,26.70
2023-05-22T11:41:05.134Z,26.50
2023-05-22T11:46:08.978Z,26.30
2023-05-22T11:51:10.947Z,26.30
2023-05-22T11:56:14.435Z,26.20
2023-05-22T12:01:16.270Z,26.40
2023-05-22T12:06:18.582Z,26.50
2023-05-22T12:11:21.619Z,26.50
2023-05-22T12:16:23.566Z,26.50
2023-05-22T12:21:29.432Z,26.70
2023-05-22T12:26:35.001Z,26.70
2023-05-22T12:31:38.462Z,26.70
2023-05-22T12:36:42.432Z,26.70
2023-05-22T12:41:45.774Z,26.80
2023-05-22T12:46:48.052Z,27.20
2023-05-22T12:51:49.973Z,27.50
2023-05-22T12:56:52.020Z,27.70
2023-05-22T13:01:54.515Z,27.70
2023-05-22T13:06:56.561Z,27.90
2023-05-22T13:11:58.442Z,28.20
2023-05-22T13:17:00.487Z,28.30
2023-05-22T13:22:02.426Z,28.30
2023-05-22T13:27:05.097Z,28.70
2023-05-22T13:32:06.935Z,28.90
2023-05-22T13:37:11.237Z,29.30
2023-05-22T13:42:15.331Z,29.20
2023-05-22T13:47:17.804Z,28.80
2023-05-22T13:52:19.715Z,29.10
2023-05-22T13:57:22.257Z,28.80
2023-05-22T14:02:24.206Z,29.30
2023-05-22T14:07:26.091Z,29.80
2023-05-22T14:12:27.966Z,29.60
2023-05-22T14:17:29.696Z,29.80
2023-05-22T14:22:36.121Z,30.00
2023-05-22T14:27:43.330Z,31.00
2023-05-22T14:32:47.160Z,31.40
2023-05-22T14:37:48.994Z,30.90
2023-05-22T14:42:53.297Z,31.30
2023-05-22T14:47:56.280Z,31.20
2023-05-22T14:52:58.177Z,31.00
2023-05-22T14:57:59.954Z,30.80
2023-05-22T15:03:02.876Z,30.90
2023-05-22T15:08:06.792Z,30.80
2023-05-22T15:13:08.533Z,30.90
2023-05-22T15:18:10.576Z,30.90
2023-05-22T15:23:13.153Z,30.60
2023-05-22T15:28:15.262Z,31.00
2023-05-22T15:33:17.149Z,30.90
2023-05-22T15:38:20.050Z,31.40
2023-05-22T15:43:22.713Z,31.60
2023-05-22T15:48:25.500Z,31.60
2023-05-22T15:53:27.282Z,31.00
2023-05-22T15:58:30.168Z,30.10
2023-05-22T16:03:32.079Z,29.70
2023-05-22T16:08:34.592Z,29.40
2023-05-22T16:13:36.312Z,29.40
2023-05-22T16:18:38.039Z,29.90
2023-05-22T16:23:39.831Z,29.90
2023-05-22T16:28:41.716Z,30.10
2023-05-22T16:33:43.460Z,30.20
2023-05-22T16:38:52.806Z,29.80
2023-05-22T16:43:54.730Z,29.80
2023-05-22T16:48:56.460Z,30.00
2023-05-22T16:54:04.662Z,29.70
2023-05-22T16:59:06.807Z,29.20
2023-05-22T17:04:08.763Z,29.00
2023-05-22T17:09:10.591Z,29.00
2023-05-22T17:14:12.786Z,29.10
2023-05-22T17:19:14.935Z,29.20
2023-05-22T17:24:16.690Z,28.40
2023-05-22T17:29:18.450Z,27.80
2023-05-22T17:34:20.166Z,27.70
2023-05-22T17:39:21.913Z,27.30
2023-05-22T17:44:23.733Z,27.10
2023-05-22T17:49:25.574Z,27.00
2023-05-22T17:54:34.186Z,26.80
2023-05-22T17:59:37.360Z,26.50
2023-05-22T18:04:40.994Z,26.40
2023-05-22T18:09:42.747Z,26.20
2023-05-22T18:14:44.520Z,25.90
2023-05-22T18:19:46.282Z,25.90
2023-05-22T18:24:47.986Z,25.50
2023-05-22T18:29:51.621Z,25.40
2023-05-22T18:34:53.472Z,25.30
2023-05-22T18:39:55.485Z,25.00
2023-05-22T18:44:58.549Z,25.00
2023-05-22T18:50:00.459Z,24.90
2023-05-22T18:55:02.181Z,24.60
2023-05-22T19:00:04.339Z,24.30
2023-05-22T19:05:07.007Z,24.10
2023-05-22T19:10:09.258Z,24.00
2023-05-22T19:15:11.390Z,23.80
2023-05-22T19:20:13.217Z,23.80
2023-05-22T19:25:15.068Z,23.70
2023-05-22T19:30:18.729Z,23.70
2023-05-22T19:35:20.723Z,23.50
2023-05-22T19:40:22.522Z,23.40
2023-05-22T19:45:26.086Z,23.30
2023-05-22T19:50:27.893Z,23.30
2023-05-22T19:55:30.513Z,23.10
2023-05-22T20:00:33.409Z,23.00
2023-05-22T20:05:35.451Z,23.00
2023-05-22T20:10:39.591Z,22.90
2023-05-22T20:15:41.775Z,23.00
2023-05-22T20:20:43.905Z,23.10
2023-05-22T20:25:45.858Z,23.10
2023-05-22T20:30:47.874Z,22.80
2023-05-22T20:35:53.030Z,23.00
2023-05-22T20:40:55.366Z,23.10
2023-05-22T20:45:57.679Z,23.20
2023-05-22T20:50:59.724Z,22.90
2023-05-22T20:56:01.957Z,22.50
2023-05-22T21:01:04.312Z,22.30
2023-05-22T21:06:06.477Z,22.10
2023-05-22T21:11:08.709Z,21.70
2023-05-22T21:16:10.668Z,21.20
2023-05-22T21:21:15.729Z,20.90
2023-05-22T21:26:18.091Z,20.90
2023-05-22T21:31:20.116Z,21.00
2023-05-22T21:36:22.103Z,20.80
2023-05-22T21:41:24.158Z,20.60
2023-05-22T21:46:26.669Z,20.60
2023-05-22T21:51:36.615Z,20.50
2023-05-22T21:56:38.736Z,20.70
2023-05-22T22:01:40.957Z,20.80
2023-05-22T22:06:42.761Z,20.40
2023-05-22T22:11:44.526Z,20.70
2023-05-22T22:16:46.935Z,20.50
2023-05-22T22:21:49.541Z,20.40
2023-05-22T22:26:51.558Z,20.60
2023-05-22T22:31:53.378Z,20.70
2023-05-22T22:36:55.097Z,20.50
2023-05-22T22:42:03.914Z,20.50
2023-05-22T22:47:07.344Z,20.30
2023-05-22T22:52:09.095Z,20.30
2023-05-22T22:57:10.981Z,20.40
2023-05-22T23:02:12.719Z,20.40
2023-05-22T23:07:14.429Z,20.30
2023-05-22T23:12:16.298Z,20.30
2023-05-22T23:17:18.013Z,20.20
2023-05-22T23:22:19.760Z,20.10
2023-05-22T23:27:21.887Z,19.90
2023-05-22T23:32:23.724Z,19.90
2023-05-22T23:37:25.552Z,19.90
2023-05-22T23:42:27.375Z,19.90
2023-05-22T23:47:29.124Z,20.00
2023-05-22T23:52:30.848Z,20.10
2023-05-22T23:57:32.607Z,20.10
